.
WxDataArchive / Data Records for 2016-03-30
2016-03-29 March 2016 2016-03-31

Data Records for Wednesday, 30 March 2016

Time	Temp	Chill	HIndex	Humid	Dewpt	 Wind 	HiWind	WindDir	Rain 	Barom
-----	----	-----	------	-----	-----	------	------	-------	-----	-----
00:00	38.5	38.5	38.5	66	28.1	0	0	---	0.00	30.221 
00:05	38.2	38.2	38.2	66	27.9	0	0	---	0.00	30.221 
00:10	37.9	37.9	37.9	67	27.9	0	0	---	0.00	30.221 
00:15	37.8	37.8	37.8	67	27.8	0	0	---	0.00	30.216 
00:20	37.9	37.9	37.9	66	27.6	0	0	---	0.00	30.216 
00:25	38.0	38.0	38.0	65	27.3	0	2	112	0.00	30.216 
00:30	38.3	38.3	38.3	65	27.6	0	2	112	0.00	30.194 
00:35	38.6	38.6	38.6	64	27.5	1	4	112	0.00	30.194 
00:40	38.8	38.8	38.8	64	27.7	0	1	112	0.00	30.194 
00:45	38.8	38.8	38.8	63	27.3	0	1	112	0.00	30.193 
00:50	38.8	38.8	38.8	63	27.3	0	1	112	0.00	30.193 
00:55	38.6	38.6	38.6	64	27.5	0	1	112	0.00	30.193 
01:00	38.5	38.5	38.5	64	27.4	0	1	112	0.00	30.192 
01:05	38.3	38.3	38.3	65	27.6	0	0	---	0.00	30.192 
01:10	38.0	38.0	38.0	65	27.3	0	0	---	0.00	30.192 
01:15	37.9	37.9	37.9	65	27.2	0	0	---	0.00	30.190 
01:20	37.8	37.8	37.8	66	27.5	0	0	---	0.00	30.190 
01:25	37.6	37.6	37.6	66	27.3	0	0	---	0.00	30.190 
01:30	37.5	37.5	37.5	66	27.2	0	0	---	0.00	30.186 
01:35	37.5	37.5	37.5	65	26.8	0	1	112	0.00	30.186 
01:40	37.5	37.5	37.5	65	26.8	0	1	112	0.00	30.186 
01:45	37.5	37.5	37.5	65	26.8	0	1	112	0.00	30.186 
01:50	37.5	37.5	37.5	65	26.8	0	2	112	0.00	30.186 
01:55	37.5	37.5	37.5	65	26.8	0	0	---	0.00	30.186 
02:00	37.3	37.3	37.3	65	26.6	0	0	---	0.00	30.180 
02:05	37.2	37.2	37.2	65	26.5	0	0	---	0.00	30.180 
02:10	37.0	37.0	37.0	65	26.3	0	0	---	0.00	30.180 
02:15	36.9	36.9	36.9	66	26.6	0	1	112	0.00	30.176 
02:20	36.8	36.8	36.8	67	26.9	0	1	112	0.00	30.176 
02:25	36.6	36.6	36.6	67	26.7	0	1	112	0.00	30.176 
02:30	36.6	36.6	36.6	67	26.7	0	1	112	0.00	30.170 
02:35	36.6	36.6	36.6	67	26.7	0	2	112	0.00	30.170 
02:40	36.5	36.5	36.5	68	27.0	0	1	112	0.00	30.170 
02:45	36.5	36.5	36.5	68	27.0	0	1	112	0.00	30.158 
02:50	36.5	36.5	36.5	69	27.3	0	2	112	0.00	30.158 
02:55	36.5	36.5	36.5	69	27.3	0	3	112	0.00	30.158 
03:00	36.6	36.6	36.6	69	27.4	0	2	112	0.00	30.154 
03:05	36.6	36.6	36.6	68	27.1	0	2	112	0.00	30.154 
03:10	36.6	36.6	36.6	68	27.1	0	2	112	0.00	30.154 
03:15	36.6	36.6	36.6	68	27.1	0	3	112	0.00	30.143 
03:20	36.6	36.6	36.6	68	27.1	0	1	112	0.00	30.143 
03:25	36.5	36.5	36.5	68	27.0	0	1	112	0.00	30.143 
03:30	36.3	36.3	36.3	69	27.1	0	1	112	0.00	30.142 
03:35	36.2	36.2	36.2	69	27.0	0	0	---	0.00	30.142 
03:40	36.0	36.0	36.0	69	26.8	0	0	---	0.00	30.142 
03:45	35.9	35.9	35.9	69	26.7	0	0	---	0.00	30.142 
03:50	35.8	35.8	35.8	69	26.6	0	1	112	0.00	30.142 
03:55	35.6	35.6	35.6	70	26.8	0	1	112	0.00	30.142 
04:00	35.6	35.6	35.6	70	26.8	0	2	112	0.00	30.132 
04:05	35.6	35.6	35.6	70	26.8	0	1	112	0.00	30.132 
04:10	35.5	35.5	35.5	71	27.0	0	1	112	0.00	30.132 
04:15	35.5	35.5	35.5	71	27.0	0	1	112	0.00	30.126 
04:20	35.3	35.3	35.3	72	27.2	0	1	112	0.00	30.126 
04:25	35.2	35.2	35.2	72	27.1	0	1	112	0.00	30.126 
04:30	35.0	35.0	35.0	72	26.9	0	0	---	0.00	30.124 
04:35	34.9	34.9	34.9	73	27.1	0	1	112	0.00	30.124 
04:40	34.9	34.9	34.9	73	27.1	0	1	112	0.00	30.124 
04:45	34.7	34.7	34.7	73	26.9	0	1	112	0.00	30.119 
04:50	34.7	34.7	34.7	73	26.9	0	1	112	0.00	30.119 
04:55	34.7	34.7	34.7	73	26.9	0	1	112	0.00	30.119 
05:00	34.6	34.6	34.6	74	27.2	0	1	112	0.00	30.115 
05:05	34.4	34.4	34.4	74	27.0	0	0	---	0.00	30.115 
05:10	34.3	34.3	34.3	75	27.2	0	1	112	0.00	30.115 
05:15	34.1	34.1	34.1	75	27.0	0	0	---	0.00	30.115 
05:20	34.0	34.0	34.0	75	26.9	0	0	---	0.00	30.115 
05:25	34.0	34.0	34.0	76	27.2	0	0	---	0.00	30.115 
05:30	33.8	33.8	33.8	76	27.1	0	0	---	0.00	30.116 
05:35	33.7	33.7	33.7	76	27.0	0	0	---	0.00	30.116 
05:40	33.7	33.7	33.7	77	27.3	0	0	---	0.00	30.116 
05:45	33.7	33.7	33.7	77	27.3	0	0	---	0.00	30.115 
05:50	33.7	33.7	33.7	77	27.3	0	1	112	0.00	30.115 
05:55	33.5	33.5	33.5	77	27.1	0	0	---	0.00	30.115 
06:00	33.4	33.4	33.4	77	27.0	0	0	---	0.00	30.120 
06:05	33.1	33.1	33.1	77	26.7	0	0	---	0.00	30.120 
06:10	32.9	32.9	32.9	77	26.5	0	0	---	0.00	30.120 
06:15	32.7	32.7	32.7	78	26.6	0	0	---	0.00	30.115 
06:20	32.5	32.5	32.5	78	26.4	0	0	---	0.00	30.115 
06:25	32.4	32.4	32.4	79	26.6	0	0	---	0.00	30.115 
06:30	32.2	32.2	32.2	80	26.7	0	1	112	0.00	30.111 
06:35	32.2	32.2	32.2	80	26.7	0	0	---	0.00	30.111 
06:40	32.2	32.2	32.2	80	26.7	0	0	---	0.00	30.111 
06:45	32.1	32.1	32.1	80	26.6	0	0	---	0.00	30.111 
06:50	31.9	31.9	31.9	80	26.4	0	0	---	0.00	30.111 
06:55	31.9	31.9	31.9	81	26.7	0	0	---	0.00	30.111 
07:00	31.8	31.8	31.8	81	26.6	0	0	---	0.00	30.100 
07:05	31.9	31.9	31.9	82	27.0	0	0	---	0.00	30.100 
07:10	32.1	32.1	32.1	82	27.2	0	1	112	0.00	30.100 
07:15	32.2	32.2	32.2	82	27.3	0	1	112	0.00	30.091 
07:20	32.4	32.4	32.4	81	27.2	0	1	112	0.00	30.091 
07:25	32.5	32.5	32.5	81	27.3	0	1	112	0.00	30.091 
07:30	32.7	32.7	32.7	81	27.5	0	1	112	0.00	30.089 
07:35	32.8	32.8	32.8	80	27.3	0	0	---	0.00	30.089 
07:40	32.9	32.9	32.9	80	27.4	0	1	112	0.00	30.089 
07:45	33.1	33.1	33.1	79	27.3	0	1	112	0.00	30.086 
07:50	33.4	33.4	33.4	79	27.6	0	1	112	0.00	30.086 
07:55	33.5	33.5	33.5	79	27.7	0	2	112	0.00	30.086 
08:00	33.7	33.7	33.7	78	27.6	0	1	112	0.00	30.084 
08:05	33.8	33.8	33.8	78	27.7	0	1	112	0.00	30.084 
08:10	34.0	34.0	34.0	78	27.9	0	1	112	0.00	30.084 
08:15	34.1	34.1	34.1	78	28.0	0	1	112	0.00	30.085 
08:20	34.3	34.3	34.3	78	28.2	0	1	112	0.00	30.085 
08:25	34.6	34.6	34.6	77	28.1	0	1	112	0.00	30.085 
08:30	34.9	34.9	34.9	77	28.4	0	1	112	0.00	30.086 
08:35	35.3	35.3	35.3	76	28.5	0	1	112	0.00	30.086 
08:40	35.8	35.8	35.8	75	28.7	0	2	112	0.00	30.086 
08:45	36.0	36.0	36.0	74	28.5	1	2	112	0.00	30.071 
08:50	36.3	36.3	36.3	74	28.8	0	2	112	0.00	30.071 
08:55	36.6	36.6	36.6	74	29.1	1	2	112	0.00	30.071 
09:00	36.8	36.8	36.8	74	29.3	1	3	112	0.00	30.062 
09:05	37.0	37.0	37.0	73	29.2	1	2	112	0.00	30.062 
09:10	37.6	37.6	37.6	73	29.7	1	3	112	0.00	30.062 
09:15	38.2	38.2	38.2	72	30.0	1	4	112	0.00	30.067 
09:20	38.8	38.8	38.8	72	30.6	1	4	112	0.00	30.067 
09:25	38.9	38.9	38.9	71	30.3	2	5	112	0.00	30.067 
09:30	39.2	39.2	39.2	72	30.9	1	3	112	0.00	30.053 
09:35	39.6	39.6	39.6	72	31.3	0	2	112	0.00	30.053 
09:40	40.1	40.1	40.1	71	31.5	0	2	112	0.00	30.053 
09:45	40.6	40.6	40.6	71	31.9	0	1	112	0.00	30.051 
09:50	41.3	41.3	41.3	69	31.9	1	2	112	0.00	30.051 
09:55	42.1	42.1	42.1	68	32.3	1	3	112	0.00	30.051 
10:00	42.9	42.9	42.9	66	32.3	1	3	112	0.00	30.037 
10:05	43.9	43.9	43.9	66	33.3	1	3	112	0.00	30.037 
10:10	45.1	45.1	45.1	64	33.7	1	4	112	0.00	30.037 
10:15	46.2	46.2	46.2	62	33.9	1	5	90	0.00	30.033 
10:20	47.6	47.6	47.6	55	32.2	2	5	90	0.00	30.033 
10:25	48.8	48.8	48.8	54	32.9	1	6	90	0.00	30.033 
10:30	49.9	49.9	49.9	50	32.0	1	4	135	0.00	30.015 
10:35	50.7	50.7	50.7	51	33.2	2	5	90	0.00	30.015 
10:40	51.3	51.3	51.3	49	32.8	2	7	135	0.00	30.015 
10:45	51.9	51.9	51.9	49	33.3	2	7	90	0.00	30.009 
10:50	52.2	52.2	52.2	47	32.6	2	6	90	0.00	30.009 
10:55	52.5	52.5	52.5	49	33.9	2	5	135	0.00	30.009 
11:00	52.9	52.9	52.9	50	34.8	1	4	90	0.00	29.997 
11:05	53.2	53.2	53.2	47	33.5	2	9	90	0.00	29.997 
11:10	53.2	53.2	53.2	48	34.0	2	5	90	0.00	29.997 
11:15	53.8	53.8	53.8	50	35.6	1	3	22	0.00	29.999 
11:20	54.4	54.4	54.4	48	35.1	1	3	22	0.00	29.999 
11:25	55.0	55.0	55.0	49	36.2	1	4	0	0.00	29.999 
11:30	55.3	55.3	55.3	48	35.9	1	4	68	0.00	29.982 
11:35	55.3	55.3	55.3	48	35.9	1	4	90	0.00	29.982 
11:40	55.4	55.4	55.4	47	35.5	2	9	90	0.00	29.982 
11:45	55.7	55.7	55.7	48	36.3	2	6	90	0.00	29.973 
11:50	55.9	55.9	55.9	46	35.4	2	6	112	0.00	29.973 
11:55	56.2	56.2	56.2	47	36.2	3	9	112	0.00	29.973 
12:00	56.2	56.2	56.2	45	35.1	3	11	90	0.00	29.957 
12:05	56.5	56.5	56.5	47	36.5	1	5	248	0.00	29.957 
12:10	56.5	56.5	56.5	45	35.4	2	9	112	0.00	29.957 
12:15	56.6	56.6	56.6	45	35.5	1	5	90	0.00	29.946 
12:20	56.9	56.9	56.9	46	36.3	1	4	22	0.00	29.946 
12:25	57.2	57.2	57.2	46	36.6	2	6	90	0.00	29.946 
12:30	57.5	57.5	57.5	47	37.4	1	5	68	0.00	29.930 
12:35	58.0	58.0	58.0	48	38.4	1	5	68	0.00	29.930 
12:40	58.9	58.9	58.9	47	38.7	2	6	68	0.00	29.930 
12:45	59.9	59.9	59.9	46	39.1	2	6	68	0.00	29.916 
12:50	60.5	60.5	60.5	43	37.9	1	4	90	0.00	29.916 
12:55	60.7	60.7	60.7	41	36.9	2	4	90	0.00	29.916 
13:00	61.2	61.2	61.2	41	37.3	2	6	90	0.00	29.900 
13:05	61.5	61.5	61.5	41	37.6	2	6	270	0.00	29.900 
13:10	61.8	61.8	61.8	40	37.2	1	3	90	0.00	29.900 
13:15	62.1	62.1	62.1	40	37.5	1	4	90	0.00	29.900 
13:20	61.6	61.6	61.6	41	37.7	2	6	112	0.00	29.900 
13:25	61.2	61.2	61.2	40	36.7	1	4	248	0.00	29.900 
13:30	60.9	60.9	60.9	40	36.4	2	7	248	0.00	29.898 
13:35	60.7	60.7	60.7	40	36.2	1	4	45	0.00	29.898 
13:40	60.5	60.5	60.5	39	35.4	2	6	248	0.00	29.898 
13:45	60.2	60.2	60.2	39	35.2	2	5	248	0.00	29.899 
13:50	60.1	60.1	60.1	40	35.7	1	4	270	0.00	29.899 
13:55	59.9	59.9	59.9	43	37.3	1	7	68	0.00	29.899 
14:00	59.8	59.8	59.8	43	37.3	1	3	270	0.00	29.895 
14:05	59.6	59.6	59.6	43	37.1	1	4	270	0.00	29.895 
14:10	59.6	59.6	59.6	43	37.1	1	4	248	0.00	29.895 
14:15	59.6	59.6	59.6	44	37.7	1	4	248	0.00	29.888 
14:20	59.6	59.6	59.6	44	37.7	1	3	248	0.00	29.888 
14:25	59.6	59.6	59.6	45	38.2	1	6	315	0.00	29.888 
14:30	59.8	59.8	59.8	47	39.5	0	1	315	0.00	29.872 
14:35	59.9	59.9	59.9	45	38.5	0	2	315	0.00	29.872 
14:40	59.9	59.9	59.9	46	39.1	0	5	45	0.00	29.872 
14:45	59.9	59.9	59.9	44	37.9	2	5	90	0.00	29.850 
14:50	60.4	60.4	60.4	43	37.8	2	6	90	0.00	29.850 
14:55	60.5	60.5	60.5	45	39.1	1	5	90	0.00	29.850 
15:00	60.7	60.7	60.7	43	38.1	1	3	270	0.00	29.855 
15:05	60.5	60.5	60.5	45	39.1	0	3	270	0.00	29.855 
15:10	60.4	60.4	60.4	44	38.4	1	4	270	0.00	29.855 
15:15	60.2	60.2	60.2	43	37.6	1	4	270	0.00	29.855 
15:20	60.2	60.2	60.2	44	38.2	1	4	202	0.00	29.855 
15:25	60.2	60.2	60.2	44	38.2	0	3	202	0.00	29.855 
15:30	60.4	60.4	60.4	44	38.4	1	4	202	0.00	29.835 
15:35	60.9	60.9	60.9	45	39.4	1	5	90	0.00	29.835 
15:40	61.2	61.2	61.2	43	38.5	1	3	90	0.00	29.835 
15:45	61.3	61.3	61.3	43	38.6	0	3	90	0.00	29.820 
15:50	61.3	61.3	61.3	44	39.2	1	4	90	0.00	29.820 
15:55	61.2	61.2	61.2	43	38.5	2	9	90	0.00	29.820 
16:00	61.5	61.5	61.5	45	40.0	1	4	90	0.00	29.795 
16:05	61.8	61.8	61.8	43	39.1	2	5	90	0.00	29.795 
16:10	62.1	62.1	62.1	43	39.3	1	6	112	0.00	29.795 
16:15	62.1	62.1	62.1	43	39.3	1	4	68	0.00	29.788 
16:20	62.1	62.1	62.1	42	38.7	2	6	90	0.00	29.788 
16:25	62.3	62.3	62.3	44	40.1	0	2	135	0.00	29.788 
16:30	62.3	62.3	62.3	44	40.1	1	4	112	0.00	29.791 
16:35	62.4	62.4	62.4	45	40.8	0	2	90	0.00	29.791 
16:40	62.4	62.4	62.4	43	39.6	1	4	338	0.00	29.791 
16:45	62.6	62.6	62.6	43	39.8	1	3	270	0.00	29.793 
16:50	62.6	62.6	62.6	43	39.8	0	3	270	0.00	29.793 
16:55	62.7	62.7	62.7	42	39.3	1	3	270	0.00	29.793 
17:00	62.7	62.7	62.7	42	39.3	1	4	270	0.00	29.803 
17:05	62.7	62.7	62.7	42	39.3	1	4	248	0.00	29.803 
17:10	62.7	62.7	62.7	43	39.9	1	3	248	0.00	29.803 
17:15	62.6	62.6	62.6	43	39.8	0	1	248	0.00	29.794 
17:20	62.4	62.4	62.4	48	42.4	0	2	248	0.00	29.794 
17:25	61.8	61.8	61.8	52	44.0	0	2	248	0.01	29.794 
17:30	61.0	61.0	61.0	56	45.2	1	3	248	0.00	29.813 
17:35	60.4	60.4	60.4	56	44.6	1	4	292	0.00	29.813 
17:40	59.9	59.9	59.9	57	44.6	1	4	248	0.00	29.813 
17:45	59.6	59.6	59.6	58	44.8	1	3	270	0.00	29.785 
17:50	59.2	59.2	59.2	61	45.8	1	4	68	0.00	29.785 
17:55	58.7	58.7	58.7	64	46.6	1	4	90	0.01	29.785 
18:00	58.1	58.1	58.1	66	46.8	0	3	112	0.00	29.768 
18:05	57.6	57.6	57.6	68	47.1	1	4	112	0.01	29.768 
18:10	57.2	57.2	57.2	68	46.7	2	5	112	0.00	29.768 
18:15	57.0	57.0	57.0	70	47.3	1	6	135	0.01	29.748 
18:20	56.9	56.9	56.9	69	46.8	1	5	90	0.00	29.748 
18:25	57.0	57.0	57.0	68	46.5	1	4	90	0.00	29.748 
18:30	57.0	57.0	57.0	67	46.2	0	2	90	0.00	29.748 
18:35	57.2	57.2	57.2	66	45.9	0	2	90	0.00	29.748 
18:40	57.3	57.3	57.3	65	45.6	1	3	90	0.00	29.748 
18:45	57.6	57.6	57.6	62	44.7	1	5	90	0.00	29.747 
18:50	58.0	58.0	58.0	62	45.1	1	3	90	0.00	29.747 
18:55	58.1	58.1	58.1	62	45.1	1	5	90	0.00	29.747 
19:00	58.3	58.3	58.3	62	45.3	0	3	90	0.00	29.745 
19:05	58.4	58.4	58.4	62	45.4	1	4	90	0.00	29.745 
19:10	58.7	58.7	58.7	63	46.1	1	3	90	0.00	29.745 
19:15	59.0	59.0	59.0	64	46.8	1	7	112	0.00	29.736 
19:20	59.3	59.3	59.3	65	47.5	2	11	90	0.00	29.736 
19:25	59.6	59.6	59.6	69	49.4	3	13	90	0.00	29.736 
19:30	59.3	59.3	59.3	72	50.3	2	6	338	0.00	29.724 
19:35	59.2	59.2	59.2	74	50.9	2	7	248	0.00	29.724 
19:40	59.0	59.0	59.0	76	51.4	3	10	248	0.00	29.724 
19:45	58.9	58.9	58.9	76	51.3	2	6	248	0.00	29.737 
19:50	58.7	58.7	58.7	76	51.2	2	6	248	0.00	29.737 
19:55	58.4	58.4	58.4	77	51.2	2	7	112	0.00	29.737 
20:00	58.3	58.3	58.3	78	51.5	2	5	112	0.00	29.740 
20:05	58.1	58.1	58.1	78	51.3	2	6	270	0.00	29.740 
20:10	57.8	57.8	57.8	80	51.7	2	6	90	0.00	29.740 
20:15	57.5	57.5	57.5	81	51.7	1	6	248	0.00	29.756 
20:20	57.3	57.3	57.3	82	51.9	2	9	248	0.01	29.756 
20:25	57.2	57.2	57.2	83	52.1	2	6	248	0.00	29.756 
20:30	57.2	57.2	57.2	83	52.1	3	11	90	0.01	29.745 
20:35	57.0	57.0	57.0	83	51.9	2	5	68	0.00	29.745 
20:40	57.0	57.0	57.0	82	51.6	3	13	90	0.00	29.745 
20:45	57.0	57.0	57.0	83	51.9	3	6	90	0.00	29.750 
20:50	57.0	57.0	57.0	83	51.9	4	10	112	0.01	29.750 
20:55	57.0	57.0	57.0	83	51.9	2	7	112	0.00	29.750 
21:00	56.7	56.7	56.7	84	51.9	3	7	112	0.00	29.773 
21:05	56.6	56.6	56.6	85	52.1	2	6	90	0.02	29.773 
21:10	56.5	56.5	56.5	86	52.4	2	5	90	0.01	29.773 
21:15	56.3	56.3	56.3	88	52.8	1	5	90	0.03	29.770 
21:20	56.2	56.2	56.2	88	52.7	2	5	90	0.01	29.770 
21:25	56.0	56.0	56.0	89	52.8	2	6	112	0.01	29.770 
21:30	56.0	56.0	56.0	89	52.8	2	5	90	0.00	29.764 
21:35	55.9	55.9	55.9	89	52.7	2	5	90	0.01	29.764 
21:40	55.9	55.9	55.9	89	52.7	1	5	90	0.00	29.764 
21:45	55.9	55.9	55.9	89	52.7	2	9	112	0.00	29.765 
21:50	55.9	55.9	55.9	89	52.7	2	6	112	0.01	29.765 
21:55	55.9	55.9	55.9	90	53.0	2	4	90	0.00	29.765 
22:00	56.0	56.0	56.0	90	53.1	2	5	90	0.02	29.766 
22:05	56.0	56.0	56.0	90	53.1	1	5	112	0.01	29.766 
22:10	56.0	56.0	56.0	91	53.4	1	5	90	0.00	29.766 
22:15	56.0	56.0	56.0	91	53.4	1	5	90	0.01	29.744 
22:20	56.0	56.0	56.0	91	53.4	1	4	90	0.01	29.744 
22:25	56.0	56.0	56.0	91	53.4	1	11	112	0.00	29.744 
22:30	56.0	56.0	56.0	92	53.7	0	5	45	0.01	29.728 
22:35	56.2	56.2	56.2	92	53.9	1	2	90	0.00	29.728 
22:40	56.2	56.2	56.2	92	53.9	1	4	90	0.00	29.728 
22:45	56.2	56.2	56.2	92	53.9	0	3	292	0.00	29.727 
22:50	56.2	56.2	56.2	92	53.9	0	3	292	0.01	29.727 
22:55	56.2	56.2	56.2	92	53.9	0	2	270	0.00	29.727 
23:00	56.2	56.2	56.2	92	53.9	1	4	270	0.01	29.739 
23:05	56.2	56.2	56.2	92	53.9	0	2	90	0.01	29.739 
23:10	56.2	56.2	56.2	92	53.9	1	2	68	0.01	29.739 
23:15	56.2	56.2	56.2	92	53.9	1	4	68	0.01	29.726 
23:20	56.2	56.2	56.2	92	53.9	1	4	45	0.01	29.726 
23:25	56.2	56.2	56.2	92	53.9	0	3	248	0.00	29.726 
23:30	56.2	56.2	56.2	92	53.9	1	6	112	0.00	29.711 
23:35	56.2	56.2	56.2	92	53.9	1	3	90	0.01	29.711 
23:40	56.2	56.2	56.2	92	53.9	0	3	90	0.00	29.711 
23:45	56.2	56.2	56.2	92	53.9	1	3	90	0.00	29.698 
23:50	56.0	56.0	56.0	93	54.0	1	3	90	0.00	29.698 
23:55	56.0	56.0	56.0	93	54.0	1	5	90	0.00	29.698 

CoCoRaHS
IN-AL-39
A2 Web Hosting
Creative Commons License
GoDaddy
search engine by freefind advanced

loaded 2018-11-15 05:41:47 • last modified 2010-11-18 10:43:29
Privacy PolicyDisclaimer
• wx.awcolley.com is powered by PmWiki v.2002016 •
• all content (unless otherwise noted) © 2018 A W Colley